KTAD/TAD METAR and TAF weather

Enter ICAO airport designator
Station Type Date Time Source
KTAD METAR 2019/08/17 09:54 UTC NOAA

KTAD 170954Z AUTO 29008KT 10SM CLR 17/10 A3005 RMK AO2 SLP080 T01670100


Station Type Date Time Source
KTAD Decoded METAR 2019/08/17 09:54 UTC NOAA

Station name not available
Aug 17, 2019 - 05:54 AM EDT / 2019.08.17 0954 UTC
Wind: from the WNW (290 degrees) at 9 MPH (8 KT):0
Visibility: 10 mile(s):0
Sky conditions: clear
Temperature: 62.1 F (16.7 C)
Dew Point: 50.0 F (10.0 C)
Relative Humidity: 64%
Pressure (altimeter): 30.05 in. Hg (1017 hPa)
ob: KTAD 170954Z AUTO 29008KT 10SM CLR 17/10 A3005 RMK AO2 SLP080 T01670100
cycle: 10

Station Type Date Time Source
KTAD TAF UTC NOAA

Error!

Example: see airport list